createdAt,value
2018-09-10T00:00:03.802Z,4.9
2018-09-10T00:03:03.859Z,4.5
2018-09-10T00:06:03.648Z,4.5
2018-09-10T00:09:03.816Z,4.5
2018-09-10T00:12:03.933Z,4.5
2018-09-10T00:15:03.612Z,4.5
2018-09-10T00:18:03.806Z,4.5
2018-09-10T00:21:03.591Z,4.5
2018-09-10T00:24:03.676Z,4.5
2018-09-10T00:27:03.889Z,4.5
2018-09-10T00:30:03.705Z,4.5
2018-09-10T00:33:03.936Z,4.5
2018-09-10T00:36:04.158Z,4.5
2018-09-10T00:39:03.890Z,4.5
2018-09-10T00:42:03.765Z,4.5
2018-09-10T00:45:03.955Z,4.5
2018-09-10T00:48:04.016Z,4.5
2018-09-10T00:51:03.768Z,4.5
2018-09-10T00:54:03.790Z,4.5
2018-09-10T00:57:03.805Z,4.5
2018-09-10T01:00:03.888Z,4.5
2018-09-10T01:03:03.963Z,4.3
2018-09-10T01:06:03.692Z,4.3
2018-09-10T01:09:03.807Z,4.3
2018-09-10T01:12:03.699Z,4.3
2018-09-10T01:15:03.579Z,4.3
2018-09-10T01:18:03.693Z,4.3
2018-09-10T01:21:03.561Z,4.3
2018-09-10T01:24:04.025Z,4.3
2018-09-10T01:27:03.711Z,4.3
2018-09-10T01:30:03.579Z,4.3
2018-09-10T01:33:04.000Z,4.3
2018-09-10T01:36:03.702Z,4.3
2018-09-10T01:39:03.917Z,4.3
2018-09-10T01:42:03.640Z,4.3
2018-09-10T01:45:03.885Z,4.3
2018-09-10T01:48:03.647Z,4.3
2018-09-10T01:51:03.651Z,4.3
2018-09-10T01:54:03.563Z,4.3
2018-09-10T01:57:03.883Z,4.3
2018-09-10T02:00:03.700Z,4.3
2018-09-10T02:03:04.074Z,4.1
2018-09-10T02:06:03.935Z,4.1
2018-09-10T02:09:03.904Z,4.1
2018-09-10T02:12:03.572Z,4.1
2018-09-10T02:15:03.982Z,4.1
2018-09-10T02:18:03.683Z,4.1
2018-09-10T02:21:03.789Z,4.1
2018-09-10T02:24:03.613Z,4.1
2018-09-10T02:27:03.858Z,4.1
2018-09-10T02:30:03.826Z,4.1
2018-09-10T02:33:03.980Z,4.1
2018-09-10T02:36:03.572Z,4.1
2018-09-10T02:39:03.949Z,4.1
2018-09-10T02:42:03.848Z,4.1
2018-09-10T02:45:03.726Z,4.1
2018-09-10T02:48:03.836Z,4.1
2018-09-10T02:51:03.723Z,4.1
2018-09-10T02:54:03.797Z,4.1
2018-09-10T02:57:03.642Z,4.1
2018-09-10T03:00:03.580Z,4.1
2018-09-10T03:03:03.740Z,3.9
2018-09-10T03:06:03.665Z,3.9
2018-09-10T03:09:03.595Z,3.9
2018-09-10T03:12:03.703Z,3.9
2018-09-10T03:15:03.702Z,3.9
2018-09-10T03:18:05.123Z,3.9
2018-09-10T03:21:03.735Z,3.9
2018-09-10T03:24:04.421Z,3.9
2018-09-10T03:27:03.464Z,3.9
2018-09-10T03:30:03.971Z,3.9
2018-09-10T03:33:03.840Z,3.9
2018-09-10T03:36:03.905Z,3.9
2018-09-10T03:39:03.637Z,3.9
2018-09-10T03:42:03.941Z,3.9
2018-09-10T03:45:03.995Z,3.9
2018-09-10T03:48:03.917Z,3.9
2018-09-10T03:51:03.581Z,3.9
2018-09-10T03:54:03.629Z,3.9
2018-09-10T03:57:03.882Z,3.9
2018-09-10T04:00:03.736Z,3.9
2018-09-10T04:03:03.932Z,3.7
2018-09-10T04:06:03.559Z,3.7
2018-09-10T04:09:03.909Z,3.7
2018-09-10T04:12:03.875Z,3.7
2018-09-10T04:15:03.940Z,3.7
2018-09-10T04:18:03.840Z,3.7
2018-09-10T04:21:03.667Z,3.7
2018-09-10T04:24:03.859Z,3.7
2018-09-10T04:27:03.621Z,3.7
2018-09-10T04:30:03.803Z,3.7
2018-09-10T04:33:03.832Z,3.7
2018-09-10T04:36:04.675Z,3.7
2018-09-10T04:39:03.929Z,3.7
2018-09-10T04:42:04.240Z,3.7
2018-09-10T04:45:03.812Z,3.7
2018-09-10T04:48:03.731Z,3.7
2018-09-10T04:51:03.652Z,3.7
2018-09-10T04:54:03.631Z,3.7
2018-09-10T04:57:03.893Z,3.7
2018-09-10T05:00:03.666Z,3.7
2018-09-10T05:03:03.517Z,3.6
2018-09-10T05:06:03.665Z,3.6
2018-09-10T05:09:03.771Z,3.6
2018-09-10T05:12:03.859Z,3.6
2018-09-10T05:15:03.585Z,3.6
2018-09-10T05:18:03.509Z,3.6
2018-09-10T05:21:03.647Z,3.6
2018-09-10T05:24:03.834Z,3.6
2018-09-10T05:27:04.019Z,3.6
2018-09-10T05:30:03.800Z,3.6
2018-09-10T05:33:03.700Z,3.6
2018-09-10T05:36:03.916Z,3.6
2018-09-10T05:39:04.035Z,3.6
2018-09-10T05:42:03.945Z,3.6
2018-09-10T05:45:03.666Z,3.6
2018-09-10T05:48:03.600Z,3.6
2018-09-10T05:51:03.579Z,3.6
2018-09-10T05:54:03.926Z,3.6
2018-09-10T05:57:03.701Z,3.6
2018-09-10T06:00:03.604Z,3.6
2018-09-10T06:03:03.868Z,3.5
2018-09-10T06:06:03.693Z,3.5
2018-09-10T06:09:03.557Z,3.5
2018-09-10T06:12:03.588Z,3.5
2018-09-10T06:15:03.467Z,3.5
2018-09-10T06:18:03.643Z,3.5
2018-09-10T06:21:03.701Z,3.5
2018-09-10T06:24:03.826Z,3.5
2018-09-10T06:27:03.779Z,3.5
2018-09-10T06:30:03.906Z,3.5
2018-09-10T06:33:03.619Z,3.5
2018-09-10T06:36:03.996Z,3.5
2018-09-10T06:39:03.712Z,3.5
2018-09-10T06:42:03.830Z,3.5
2018-09-10T06:45:03.696Z,3.5
2018-09-10T06:48:03.643Z,3.5
2018-09-10T06:51:03.805Z,3.5
2018-09-10T06:54:03.728Z,3.5
2018-09-10T06:57:03.799Z,3.5
2018-09-10T07:00:03.672Z,3.5
2018-09-10T07:03:03.588Z,3.5
2018-09-10T07:06:03.913Z,3.5
2018-09-10T07:09:03.820Z,3.5
2018-09-10T07:12:03.914Z,3.5
2018-09-10T07:15:03.509Z,3.5
2018-09-10T07:18:03.548Z,3.5
2018-09-10T07:21:03.636Z,3.5
2018-09-10T07:24:03.835Z,3.5
2018-09-10T07:27:03.700Z,3.5
2018-09-10T07:30:03.540Z,3.5
2018-09-10T07:33:03.708Z,3.5
2018-09-10T07:36:03.533Z,3.5
2018-09-10T07:39:03.743Z,3.5
2018-09-10T07:42:03.581Z,3.5
2018-09-10T07:45:03.636Z,3.5
2018-09-10T07:48:03.504Z,3.5
2018-09-10T07:51:03.925Z,3.5
2018-09-10T07:54:03.744Z,3.5
2018-09-10T07:57:03.630Z,3.5
2018-09-10T08:00:04.008Z,3.5
2018-09-10T08:03:05.024Z,3.5
2018-09-10T08:06:03.679Z,3.5
2018-09-10T08:09:04.188Z,3.5
2018-09-10T08:12:03.692Z,3.5
2018-09-10T08:15:03.571Z,3.5
2018-09-10T08:18:03.430Z,3.5
2018-09-10T08:21:03.504Z,3.5
2018-09-10T08:24:04.395Z,3.5
2018-09-10T08:27:03.565Z,3.5
2018-09-10T08:30:03.615Z,3.5
2018-09-10T08:33:04.103Z,3.5
2018-09-10T08:36:03.753Z,3.5
2018-09-10T08:39:03.539Z,3.5
2018-09-10T08:42:03.597Z,3.5
2018-09-10T08:45:03.541Z,3.5
2018-09-10T08:48:03.720Z,3.5
2018-09-10T08:51:03.557Z,3.5
2018-09-10T08:54:05.192Z,3.5
2018-09-10T08:57:03.692Z,3.5
2018-09-10T09:00:04.375Z,3.5
2018-09-10T09:03:03.923Z,3.6
2018-09-10T09:06:05.042Z,3.6
2018-09-10T09:09:03.592Z,3.6
2018-09-10T09:12:03.638Z,3.6
2018-09-10T09:15:03.466Z,3.6
2018-09-10T09:18:03.657Z,3.6
2018-09-10T09:21:03.667Z,3.6
2018-09-10T09:24:04.086Z,3.6
2018-09-10T09:27:03.670Z,3.6
2018-09-10T09:30:04.450Z,3.6
2018-09-10T09:33:03.571Z,3.6
2018-09-10T09:36:03.812Z,3.6
2018-09-10T09:39:04.790Z,3.6
2018-09-10T09:42:03.669Z,3.6
2018-09-10T09:45:03.677Z,3.6
2018-09-10T09:48:04.289Z,3.6
2018-09-10T09:51:04.369Z,3.6
2018-09-10T09:54:04.513Z,3.6
2018-09-10T09:57:03.581Z,3.6
2018-09-10T10:00:04.905Z,3.6
2018-09-10T10:03:03.669Z,3.6
2018-09-10T10:06:03.455Z,3.6
2018-09-10T10:09:03.607Z,3.6
2018-09-10T10:12:04.988Z,3.6
2018-09-10T10:15:03.592Z,3.6
2018-09-10T10:18:03.401Z,3.6
2018-09-10T10:21:03.941Z,3.6
2018-09-10T10:24:03.472Z,3.6
2018-09-10T10:27:03.632Z,3.6
2018-09-10T10:30:04.059Z,3.6
2018-09-10T10:33:03.463Z,3.6
2018-09-10T10:36:03.623Z,3.6
2018-09-10T10:39:04.391Z,3.6
2018-09-10T10:42:03.442Z,3.6
2018-09-10T10:45:03.473Z,3.6
2018-09-10T10:48:03.744Z,3.6
2018-09-10T10:51:03.762Z,3.6
2018-09-10T10:54:03.523Z,3.6
2018-09-10T10:57:03.609Z,3.6
2018-09-10T11:00:03.554Z,3.6
2018-09-10T11:03:03.520Z,3.6
2018-09-10T11:06:03.681Z,3.6
2018-09-10T11:09:03.692Z,3.6
2018-09-10T11:12:03.584Z,3.6
2018-09-10T11:15:03.750Z,3.6
2018-09-10T11:18:03.781Z,3.6
2018-09-10T11:21:03.580Z,3.6
2018-09-10T11:24:03.714Z,3.6
2018-09-10T11:27:03.513Z,3.6
2018-09-10T11:30:03.599Z,3.6
2018-09-10T11:33:03.826Z,3.6
2018-09-10T11:36:03.855Z,3.6
2018-09-10T11:39:03.650Z,3.6
2018-09-10T11:42:03.461Z,3.6
2018-09-10T11:45:03.547Z,3.6
2018-09-10T11:48:03.445Z,3.6
2018-09-10T11:51:03.692Z,3.6
2018-09-10T11:54:03.542Z,3.6
2018-09-10T11:57:03.778Z,3.6
2018-09-10T12:00:03.887Z,3.6
2018-09-10T12:03:03.777Z,3.6
2018-09-10T12:06:03.503Z,3.6
2018-09-10T12:09:03.828Z,3.6
2018-09-10T12:12:03.720Z,3.6
2018-09-10T12:15:03.604Z,3.6
2018-09-10T12:18:03.550Z,3.6
2018-09-10T12:21:03.806Z,3.6
2018-09-10T12:24:03.596Z,3.6
2018-09-10T12:27:03.596Z,3.6
2018-09-10T12:30:03.574Z,3.6
2018-09-10T12:33:03.859Z,3.6
2018-09-10T12:36:03.519Z,3.6
2018-09-10T12:39:03.554Z,3.6
2018-09-10T12:42:03.647Z,3.6
2018-09-10T12:45:03.475Z,3.6
2018-09-10T12:48:03.544Z,3.6
2018-09-10T12:51:03.903Z,3.6
2018-09-10T12:54:03.676Z,3.6
2018-09-10T12:57:03.497Z,3.6
2018-09-10T13:00:03.829Z,3.6
2018-09-10T13:03:03.356Z,3.6
2018-09-10T13:06:03.495Z,3.6
2018-09-10T13:09:03.359Z,3.6
2018-09-10T13:12:03.445Z,3.6
2018-09-10T13:15:03.501Z,3.6
2018-09-10T13:18:03.456Z,3.6
2018-09-10T13:21:03.547Z,3.6
2018-09-10T13:24:03.725Z,3.6
2018-09-10T13:27:03.584Z,3.6
2018-09-10T13:30:03.564Z,3.6
2018-09-10T13:33:03.495Z,3.6
2018-09-10T13:36:04.008Z,3.6
2018-09-10T13:39:04.636Z,3.6
2018-09-10T13:42:03.536Z,3.6
2018-09-10T13:45:04.748Z,3.6
2018-09-10T13:48:03.519Z,3.6
2018-09-10T13:51:03.829Z,3.6
2018-09-10T13:54:04.374Z,3.6
2018-09-10T13:57:03.485Z,3.6
2018-09-10T14:00:03.645Z,3.6
2018-09-10T14:03:03.898Z,3.7
2018-09-10T14:06:03.584Z,3.7
2018-09-10T14:09:03.650Z,3.7
2018-09-10T14:12:03.667Z,3.7
2018-09-10T14:15:03.841Z,3.7
2018-09-10T14:18:04.015Z,3.7
2018-09-10T14:21:03.759Z,3.7
2018-09-10T14:24:03.629Z,3.7
2018-09-10T14:27:03.507Z,3.7
2018-09-10T14:30:03.664Z,3.7
2018-09-10T14:33:03.468Z,3.7
2018-09-10T14:36:06.553Z,3.7
2018-09-10T14:39:03.650Z,3.7
2018-09-10T14:42:03.443Z,3.7
2018-09-10T14:45:03.693Z,3.7
2018-09-10T14:48:03.489Z,3.7
2018-09-10T14:51:03.935Z,3.7
2018-09-10T14:54:03.550Z,3.7
2018-09-10T14:57:03.688Z,3.7
2018-09-10T15:00:03.767Z,3.7
2018-09-10T15:03:03.696Z,3.8
2018-09-10T15:06:03.530Z,3.8
2018-09-10T15:09:03.669Z,3.8
2018-09-10T15:12:04.153Z,3.8
2018-09-10T15:15:03.633Z,3.8
2018-09-10T15:18:03.656Z,3.8
2018-09-10T15:21:04.100Z,3.8
2018-09-10T15:24:03.730Z,3.8
2018-09-10T15:27:03.403Z,3.8
2018-09-10T15:30:03.568Z,3.8
2018-09-10T15:33:03.587Z,3.8
2018-09-10T15:36:03.613Z,3.8
2018-09-10T15:39:03.548Z,3.8
2018-09-10T15:42:03.811Z,3.8
2018-09-10T15:45:04.290Z,3.8
2018-09-10T15:48:03.383Z,3.8
2018-09-10T15:51:04.122Z,3.8
2018-09-10T15:54:03.575Z,3.8
2018-09-10T15:57:03.465Z,3.8
2018-09-10T16:00:04.314Z,3.8
2018-09-10T16:03:03.656Z,3.8
2018-09-10T16:06:03.412Z,3.8
2018-09-10T16:09:03.456Z,3.8
2018-09-10T16:12:03.919Z,3.8
2018-09-10T16:15:03.453Z,3.8
2018-09-10T16:18:03.876Z,3.8
2018-09-10T16:21:03.484Z,3.8
2018-09-10T16:24:04.858Z,3.8
2018-09-10T16:27:03.546Z,3.8
2018-09-10T16:30:03.633Z,3.8
2018-09-10T16:33:03.579Z,3.8
2018-09-10T16:36:03.877Z,3.8
2018-09-10T16:39:03.431Z,3.8
2018-09-10T16:42:03.550Z,3.8
2018-09-10T16:45:03.748Z,3.8
2018-09-10T16:48:03.462Z,3.8
2018-09-10T16:51:03.896Z,3.8
2018-09-10T16:54:04.642Z,3.8
2018-09-10T16:57:03.589Z,3.8
2018-09-10T17:00:03.575Z,3.8
2018-09-10T17:03:03.588Z,3.9
2018-09-10T17:06:03.423Z,3.9
2018-09-10T17:09:03.643Z,3.9
2018-09-10T17:12:03.919Z,3.9
2018-09-10T17:15:03.673Z,3.9
2018-09-10T17:18:03.487Z,3.9
2018-09-10T17:21:03.488Z,3.9
2018-09-10T17:24:03.388Z,3.9
2018-09-10T17:27:03.552Z,3.9
2018-09-10T17:30:03.384Z,3.9
2018-09-10T17:33:03.363Z,3.9
2018-09-10T17:36:03.430Z,3.9
2018-09-10T17:39:03.945Z,3.9
2018-09-10T17:42:03.450Z,3.9
2018-09-10T17:45:03.494Z,3.9
2018-09-10T17:48:03.481Z,3.9
2018-09-10T17:51:04.113Z,3.9
2018-09-10T17:54:03.831Z,3.9
2018-09-10T17:57:03.630Z,3.9
2018-09-10T18:00:03.465Z,3.9
2018-09-10T18:03:04.186Z,3.9
2018-09-10T18:06:03.608Z,3.9
2018-09-10T18:09:03.486Z,3.9
2018-09-10T18:12:03.533Z,3.9
2018-09-10T18:15:03.803Z,3.9
2018-09-10T18:18:03.697Z,3.9
2018-09-10T18:21:03.645Z,3.9
2018-09-10T18:24:03.633Z,3.9
2018-09-10T18:27:03.696Z,3.9
2018-09-10T18:30:03.480Z,3.9
2018-09-10T18:33:03.734Z,3.9
2018-09-10T18:36:03.500Z,3.9
2018-09-10T18:39:03.676Z,3.9
2018-09-10T18:42:03.602Z,3.9
2018-09-10T18:45:03.655Z,3.9
2018-09-10T18:48:03.694Z,3.9
2018-09-10T18:51:03.446Z,3.9
2018-09-10T18:54:03.523Z,3.9
2018-09-10T18:57:03.499Z,3.9
2018-09-10T19:00:03.891Z,3.9
2018-09-10T19:03:03.539Z,3.9
2018-09-10T19:06:03.642Z,3.9
2018-09-10T19:09:03.590Z,3.9
2018-09-10T19:12:03.330Z,3.9
2018-09-10T19:15:03.464Z,3.9
2018-09-10T19:18:04.609Z,3.9
2018-09-10T19:21:03.597Z,3.9
2018-09-10T19:24:03.576Z,3.9
2018-09-10T19:27:03.692Z,3.9
2018-09-10T19:30:03.630Z,3.9
2018-09-10T19:33:03.581Z,3.9
2018-09-10T19:36:03.488Z,3.9
2018-09-10T19:39:03.387Z,3.9
2018-09-10T19:42:03.928Z,3.9
2018-09-10T19:45:03.864Z,3.9
2018-09-10T19:48:03.445Z,3.9
2018-09-10T19:51:03.480Z,3.9
2018-09-10T19:54:03.562Z,3.9
2018-09-10T19:57:03.643Z,3.9
2018-09-10T20:00:03.470Z,3.9
2018-09-10T20:03:03.394Z,3.7
2018-09-10T20:06:03.538Z,3.7
2018-09-10T20:09:03.527Z,3.7
2018-09-10T20:12:03.411Z,3.7
2018-09-10T20:15:03.990Z,3.7
2018-09-10T20:18:03.513Z,3.7
2018-09-10T20:21:03.631Z,3.7
2018-09-10T20:24:03.605Z,3.7
2018-09-10T20:27:03.577Z,3.7
2018-09-10T20:30:03.583Z,3.7
2018-09-10T20:33:03.451Z,3.7
2018-09-10T20:36:03.519Z,3.7
2018-09-10T20:39:03.947Z,3.7
2018-09-10T20:42:03.442Z,3.7
2018-09-10T20:45:03.451Z,3.7
2018-09-10T20:48:03.470Z,3.7
2018-09-10T20:51:03.802Z,3.7
2018-09-10T20:54:03.618Z,3.7
2018-09-10T20:57:03.615Z,3.7
2018-09-10T21:00:03.538Z,3.7
2018-09-10T21:03:04.080Z,3.7
2018-09-10T21:06:03.964Z,3.7
2018-09-10T21:09:03.471Z,3.7
2018-09-10T21:12:03.575Z,3.7
2018-09-10T21:15:03.579Z,3.7
2018-09-10T21:18:03.550Z,3.7
2018-09-10T21:21:03.422Z,3.7
2018-09-10T21:24:03.561Z,3.7
2018-09-10T21:27:03.482Z,3.7
2018-09-10T21:30:03.635Z,3.7
2018-09-10T21:33:04.286Z,3.7
2018-09-10T21:36:03.492Z,3.7
2018-09-10T21:39:03.570Z,3.7
2018-09-10T21:42:03.460Z,3.7
2018-09-10T21:45:03.684Z,3.7
2018-09-10T21:48:03.790Z,3.7
2018-09-10T21:51:03.527Z,3.7
2018-09-10T21:54:03.475Z,3.7
2018-09-10T21:57:03.529Z,3.7
2018-09-10T22:00:03.699Z,3.7
2018-09-10T22:03:03.451Z,3.6
2018-09-10T22:06:03.752Z,3.6
2018-09-10T22:09:03.315Z,3.6
2018-09-10T22:12:03.549Z,3.6
2018-09-10T22:15:03.485Z,3.6
2018-09-10T22:18:03.499Z,3.6
2018-09-10T22:21:03.865Z,3.6
2018-09-10T22:24:03.594Z,3.6
2018-09-10T22:27:03.637Z,3.6
2018-09-10T22:30:03.479Z,3.6
2018-09-10T22:33:03.554Z,3.6
2018-09-10T22:36:03.676Z,3.6
2018-09-10T22:39:03.849Z,3.6
2018-09-10T22:42:03.521Z,3.6
2018-09-10T22:45:03.426Z,3.6
2018-09-10T22:48:03.739Z,3.6
2018-09-10T22:51:03.480Z,3.6
2018-09-10T22:54:03.471Z,3.6
2018-09-10T22:57:03.438Z,3.6
2018-09-10T23:00:03.452Z,3.6
2018-09-10T23:03:03.430Z,3.6
2018-09-10T23:06:03.374Z,3.6
2018-09-10T23:09:03.402Z,3.6
2018-09-10T23:12:03.515Z,3.6
2018-09-10T23:15:03.369Z,3.6
2018-09-10T23:18:03.532Z,3.6
2018-09-10T23:21:03.390Z,3.6
2018-09-10T23:24:03.464Z,3.6
2018-09-10T23:27:03.510Z,3.6
2018-09-10T23:30:03.394Z,3.6
2018-09-10T23:33:03.609Z,3.6
2018-09-10T23:36:03.469Z,3.6
2018-09-10T23:39:03.675Z,3.6
2018-09-10T23:42:03.339Z,3.6
2018-09-10T23:45:03.696Z,3.6
2018-09-10T23:48:03.471Z,3.6
2018-09-10T23:51:03.317Z,3.6
2018-09-10T23:54:03.639Z,3.6
2018-09-10T23:57:03.274Z,3.6
